Time;durP1;ratioP1;P1;durP2;ratioP2;P2;SDS_P1;SDS_P2;PMS_P1;PMS_P2;Temp;Humidity;BMP_temperature;BMP_pressure;BME280_temperature;BME280_humidity;BME280_pressure;Samples;Min_cycle;Max_cycle;Signal;HPM_P1;HPM_P2
2021/01/10 00:00:22;;;;;;;15.38;6.53;;;4.00;94.70;;;;;;5029748;28;20472;-82
2021/01/10 00:02:49;;;;;;;16.50;6.93;;;4.00;94.80;;;;;;5047864;28;20029;-82
2021/01/10 00:05:28;;;;;;;13.88;5.88;;;4.00;94.90;;;;;;5046307;28;20071;-81
2021/01/10 00:07:55;;;;;;;21.48;7.40;;;4.00;95.10;;;;;;5046636;28;20045;-80
2021/01/10 00:10:21;;;;;;;12.63;6.22;;;4.00;95.30;;;;;;5054265;28;20032;-80
2021/01/10 00:12:46;;;;;;;11.82;6.25;;;3.90;95.20;;;;;;5036307;28;20033;-81
2021/01/10 00:15:14;;;;;;;21.25;6.55;;;3.90;95.30;;;;;;5054103;28;20075;-80
2021/01/10 00:17:43;;;;;;;14.93;6.05;;;3.90;95.30;;;;;;5052970;28;20090;-79
2021/01/10 00:20:10;;;;;;;17.30;6.50;;;3.80;95.40;;;;;;5053180;28;20051;-82
2021/01/10 00:22:36;;;;;;;18.42;6.97;;;3.80;95.50;;;;;;5054342;28;20025;-82
2021/01/10 00:25:09;;;;;;;23.77;7.50;;;3.80;95.60;;;;;;5054292;28;20021;-81
2021/01/10 00:27:35;;;;;;;16.33;7.28;;;3.80;95.70;;;;;;5052803;28;20044;-80
2021/01/10 00:30:02;;;;;;;19.98;8.20;;;3.80;95.80;;;;;;5053976;28;20025;-81
2021/01/10 00:32:28;;;;;;;21.17;8.20;;;3.80;95.90;;;;;;5052917;28;20484;-82
2021/01/10 00:34:54;;;;;;;15.50;7.63;;;3.70;95.90;;;;;;5053701;28;20033;-79
2021/01/10 00:37:21;;;;;;;25.08;7.88;;;3.70;96.00;;;;;;5036090;28;20588;-81
2021/01/10 00:39:48;;;;;;;13.70;7.05;;;3.70;96.10;;;;;;5036347;28;20036;-79
2021/01/10 00:42:14;;;;;;;18.08;7.55;;;3.70;96.20;;;;;;5053936;28;20017;-82
2021/01/10 00:44:41;;;;;;;15.13;7.38;;;3.70;96.40;;;;;;5052846;28;20029;-80
2021/01/10 00:47:08;;;;;;;20.95;8.27;;;3.60;96.40;;;;;;5053894;28;20059;-79
2021/01/10 00:49:34;;;;;;;22.80;8.98;;;3.60;96.50;;;;;;5053917;28;20115;-81
2021/01/10 00:52:00;;;;;;;20.92;8.25;;;3.60;96.60;;;;;;5053764;28;20021;-82
2021/01/10 00:54:27;;;;;;;14.35;7.70;;;3.60;96.60;;;;;;5053701;28;20033;-81
2021/01/10 00:56:53;;;;;;;23.23;10.00;;;3.60;96.80;;;;;;5053832;28;20025;-83
2021/01/10 00:59:19;;;;;;;20.10;10.05;;;3.60;96.90;;;;;;5052831;28;20017;-83
2021/01/10 01:01:45;;;;;;;18.02;8.48;;;3.60;97.00;;;;;;5035979;28;20025;-78
2021/01/10 01:04:11;;;;;;;17.63;8.10;;;3.60;97.00;;;;;;5053604;28;20076;-80
2021/01/10 01:06:37;;;;;;;24.15;10.90;;;3.50;97.20;;;;;;5053571;28;20056;-79
2021/01/10 01:09:04;;;;;;;23.20;9.15;;;3.50;97.30;;;;;;5053834;28;20529;-82
2021/01/10 01:11:35;;;;;;;20.58;8.75;;;3.50;97.40;;;;;;5053806;28;20029;-78
2021/01/10 01:14:01;;;;;;;24.30;10.50;;;3.50;97.50;;;;;;5053850;28;20024;-81
2021/01/10 01:16:27;;;;;;;19.55;10.25;;;3.50;97.60;;;;;;5052260;28;20032;-82
2021/01/10 01:18:53;;;;;;;24.83;10.25;;;3.50;97.70;;;;;;5052697;28;20017;-80
2021/01/10 01:21:20;;;;;;;20.52;9.95;;;3.50;97.70;;;;;;5048851;28;20021;-80
2021/01/10 01:23:47;;;;;;;20.42;10.40;;;3.50;97.80;;;;;;5049151;28;20029;-79
2021/01/10 01:26:20;;;;;;;25.58;10.88;;;3.50;97.90;;;;;;5032380;28;20061;-80
2021/01/10 01:28:47;;;;;;;23.88;9.82;;;3.50;97.90;;;;;;5050463;28;20032;-81
2021/01/10 01:31:33;;;;;;;26.40;11.35;;;3.50;98.10;;;;;;5049012;28;20041;-82
2021/01/10 01:33:59;;;;;;;19.73;10.77;;;3.50;98.20;;;;;;5049458;28;20638;-81
2021/01/10 01:36:27;;;;;;;19.48;11.57;;;3.50;98.10;;;;;;5049113;28;20104;-79
2021/01/10 01:38:54;;;;;;;24.02;11.63;;;3.50;98.20;;;;;;5049092;28;20029;-78
2021/01/10 01:41:20;;;;;;;31.25;11.85;;;3.50;98.30;;;;;;5048818;28;20037;-81
2021/01/10 01:43:46;;;;;;;27.05;13.88;;;3.50;98.30;;;;;;5050173;28;20443;-79
2021/01/10 01:46:30;;;;;;;26.80;12.27;;;3.50;98.30;;;;;;5049045;28;20048;-81
2021/01/10 01:49:04;;;;;;;24.45;13.07;;;3.50;98.40;;;;;;5048652;28;20075;-81
2021/01/10 01:51:30;;;;;;;19.52;12.55;;;3.50;98.40;;;;;;5048778;28;20039;-81
2021/01/10 01:53:58;;;;;;;26.30;11.90;;;3.50;98.50;;;;;;5048509;28;20494;-82
2021/01/10 01:56:24;;;;;;;28.08;14.65;;;3.50;98.60;;;;;;5048407;28;20704;-80
2021/01/10 01:59:01;;;;;;;33.75;14.55;;;3.50;98.60;;;;;;5048329;28;20078;-81
2021/01/10 02:01:29;;;;;;;26.23;14.70;;;3.50;98.70;;;;;;5048435;28;20052;-82
2021/01/10 02:04:15;;;;;;;32.63;14.43;;;3.60;98.70;;;;;;5048927;28;20049;-79
2021/01/10 02:06:48;;;;;;;21.77;12.63;;;3.60;98.80;;;;;;5049247;28;20124;-81
2021/01/10 02:09:16;;;;;;;26.90;13.85;;;3.60;98.80;;;;;;5049657;28;20403;-79
2021/01/10 02:11:47;;;;;;;29.00;13.90;;;3.60;98.80;;;;;;5048713;28;20519;-81
2021/01/10 02:14:18;;;;;;;24.67;12.25;;;3.60;98.90;;;;;;5049729;28;20043;-82
2021/01/10 02:16:44;;;;;;;26.85;12.32;;;3.60;99.00;;;;;;5049610;28;20408;-85
2021/01/10 02:19:37;;;;;;;23.30;13.00;;;3.60;99.00;;;;;;5031469;28;20029;-80
2021/01/10 02:22:05;;;;;;;25.05;11.95;;;3.60;99.10;;;;;;5044916;28;20029;-82
2021/01/10 02:24:35;;;;;;;26.83;12.98;;;3.60;99.10;;;;;;5049331;28;20099;-80
2021/01/10 02:27:05;;;;;;;30.10;13.18;;;3.60;99.10;;;;;;5049516;28;20025;-81
2021/01/10 02:29:33;;;;;;;28.17;12.82;;;3.60;99.20;;;;;;5031594;28;20029;-77
2021/01/10 02:32:02;;;;;;;28.55;15.02;;;3.60;99.20;;;;;;5046808;28;20483;-78
2021/01/10 02:34:28;;;;;;;36.30;16.13;;;3.60;99.20;;;;;;5049150;28;20052;-79
2021/01/10 02:36:56;;;;;;;28.88;13.75;;;3.70;99.30;;;;;;5048869;28;20033;-77
2021/01/10 02:40:07;;;;;;;30.20;14.88;;;3.70;99.30;;;;;;5049044;28;20052;-80
2021/01/10 02:42:41;;;;;;;24.80;13.27;;;3.70;99.40;;;;;;5047995;28;20037;-79
2021/01/10 02:45:14;;;;;;;25.23;13.88;;;3.80;99.30;;;;;;5049122;28;20103;-80
2021/01/10 02:47:40;;;;;;;22.80;13.30;;;3.80;99.40;;;;;;5048966;28;20025;-79
2021/01/10 02:50:07;;;;;;;32.70;14.10;;;3.80;99.40;;;;;;5048860;28;20139;-77
2021/01/10 02:52:33;;;;;;;30.92;13.82;;;3.80;99.40;;;;;;5047383;28;20495;-78
2021/01/10 02:54:59;;;;;;;29.05;14.20;;;3.80;99.50;;;;;;5048126;28;20039;-78
2021/01/10 02:57:32;;;;;;;24.88;13.70;;;3.80;99.50;;;;;;5016280;28;20060;-79
2021/01/10 03:00:00;;;;;;;33.63;14.77;;;3.80;99.60;;;;;;5049911;28;20017;-80
2021/01/10 03:02:27;;;;;;;26.90;13.95;;;3.80;99.60;;;;;;5048485;28;20028;-81
2021/01/10 03:04:53;;;;;;;30.05;13.43;;;3.80;99.60;;;;;;5049257;28;20390;-80
2021/01/10 03:07:20;;;;;;;24.50;14.00;;;3.80;99.70;;;;;;5049161;28;20451;-78
2021/01/10 03:09:46;;;;;;;26.13;14.48;;;3.80;99.70;;;;;;5048584;28;20040;-79
2021/01/10 03:12:25;;;;;;;27.42;16.40;;;3.80;99.90;;;;;;5030593;28;20037;-79
2021/01/10 03:14:52;;;;;;;28.90;14.30;;;3.80;99.80;;;;;;5047234;28;20048;-82
2021/01/10 03:17:44;;;;;;;23.40;13.75;;;3.70;99.80;;;;;;5047112;28;20067;-80
2021/01/10 03:20:21;;;;;;;27.00;12.90;;;3.70;99.90;;;;;;5047105;28;20028;-79
2021/01/10 03:22:48;;;;;;;28.70;13.93;;;3.70;99.80;;;;;;5047063;28;20476;-81
2021/01/10 03:25:17;;;;;;;27.13;15.10;;;3.80;99.90;;;;;;5048140;28;20076;-81
2021/01/10 03:27:43;;;;;;;27.37;16.17;;;3.80;99.90;;;;;;5047012;28;20038;-78
2021/01/10 03:30:15;;;;;;;28.13;14.38;;;3.80;99.90;;;;;;5048492;28;20264;-80
2021/01/10 03:32:41;;;;;;;26.27;14.18;;;3.80;99.90;;;;;;5048042;28;20021;-79
2021/01/10 03:35:08;;;;;;;28.45;14.43;;;3.80;99.90;;;;;;5046675;28;20041;-81
2021/01/10 03:37:38;;;;;;;34.00;16.02;;;3.80;99.90;;;;;;5046719;28;20369;-80
2021/01/10 03:40:05;;;;;;;31.40;16.05;;;3.80;99.90;;;;;;5046823;28;20025;-81
2021/01/10 03:42:31;;;;;;;24.10;14.23;;;3.80;99.90;;;;;;5047909;28;20546;-81
2021/01/10 03:44:57;;;;;;;26.15;16.00;;;3.80;99.90;;;;;;5029822;28;20391;-79
2021/01/10 03:47:22;;;;;;;32.17;17.02;;;3.80;99.90;;;;;;5046581;28;20033;-80
2021/01/10 03:49:48;;;;;;;31.00;17.60;;;3.90;99.90;;;;;;5048039;28;20056;-82
2021/01/10 03:52:14;;;;;;;30.73;16.27;;;3.90;99.90;;;;;;5013558;28;20035;-80
2021/01/10 03:54:39;;;;;;;29.20;17.23;;;3.90;99.90;;;;;;5029732;28;20492;-80
2021/01/10 03:57:05;;;;;;;38.42;17.95;;;3.80;99.90;;;;;;5046443;28;20041;-78
2021/01/10 03:59:31;;;;;;;30.10;17.63;;;3.80;99.90;;;;;;5013401;28;20033;-80
2021/01/10 04:01:56;;;;;;;36.00;18.88;;;3.80;99.90;;;;;;5029906;28;20096;-78
2021/01/10 04:04:22;;;;;;;22.42;15.02;;;3.80;99.90;;;;;;5047743;28;20044;-78
2021/01/10 04:06:48;;;;;;;31.17;19.13;;;3.80;99.90;;;;;;5047653;28;20102;-80
2021/01/10 04:09:13;;;;;;;27.98;17.05;;;3.90;99.90;;;;;;5046498;28;20079;-79
2021/01/10 04:11:39;;;;;;;33.92;17.92;;;3.90;99.90;;;;;;5046511;28;20043;-77
2021/01/10 04:14:05;;;;;;;33.17;19.00;;;3.90;99.90;;;;;;5029780;28;20031;-82
2021/01/10 04:16:30;;;;;;;34.03;18.05;;;3.90;99.90;;;;;;5047417;28;20109;-78
2021/01/10 04:18:56;;;;;;;27.58;16.85;;;3.90;99.90;;;;;;5013394;28;20571;-77
2021/01/10 04:21:22;;;;;;;32.95;17.63;;;3.90;99.90;;;;;;5029632;28;20032;-82
2021/01/10 04:23:47;;;;;;;34.20;17.38;;;3.90;99.90;;;;;;5046384;28;20423;-83
2021/01/10 04:26:13;;;;;;;36.72;17.85;;;3.90;99.90;;;;;;5047443;28;20123;-81
2021/01/10 04:28:39;;;;;;;29.48;16.08;;;3.90;99.90;;;;;;5029702;28;20060;-78
2021/01/10 04:31:04;;;;;;;33.05;18.05;;;3.90;99.90;;;;;;5047502;28;20021;-81
2021/01/10 04:33:30;;;;;;;29.20;17.17;;;3.90;99.90;;;;;;5029733;28;20055;-79
2021/01/10 04:35:56;;;;;;;31.52;17.35;;;3.90;99.90;;;;;;5046286;28;20052;-79
2021/01/10 04:38:22;;;;;;;30.98;17.65;;;3.90;99.90;;;;;;5029727;28;20488;-80
2021/01/10 04:40:48;;;;;;;27.73;15.73;;;3.90;99.90;;;;;;5046235;28;20049;-82
2021/01/10 04:43:14;;;;;;;32.75;17.08;;;3.90;99.90;;;;;;5046148;28;20025;-82
2021/01/10 04:45:41;;;;;;;28.33;16.45;;;3.90;99.90;;;;;;5047659;28;20021;-80
2021/01/10 04:48:09;;;;;;;29.70;17.08;;;3.90;99.90;;;;;;5045983;28;20025;-79
2021/01/10 04:50:37;;;;;;;28.50;15.98;;;3.90;99.90;;;;;;5046024;28;20036;-78
2021/01/10 04:53:03;;;;;;;27.95;15.82;;;3.90;99.90;;;;;;5045962;28;20025;-81
2021/01/10 04:55:31;;;;;;;29.73;17.30;;;4.00;99.90;;;;;;5046894;28;20025;-79
2021/01/10 04:58:07;;;;;;;27.13;15.75;;;4.00;99.90;;;;;;5049594;28;20025;-82
2021/01/10 05:00:35;;;;;;;30.65;14.93;;;4.00;99.90;;;;;;5050900;28;20399;-79
2021/01/10 05:03:05;;;;;;;28.23;17.42;;;4.00;99.90;;;;;;5049632;28;20039;-80
2021/01/10 05:05:34;;;;;;;32.35;15.55;;;4.00;99.90;;;;;;5050831;28;20033;-83
2021/01/10 05:07:59;;;;;;;26.20;15.80;;;4.00;99.90;;;;;;5049306;28;20416;-80
2021/01/10 05:10:25;;;;;;;27.55;14.13;;;4.00;99.90;;;;;;5032818;28;20274;-80
2021/01/10 05:12:51;;;;;;;30.77;15.27;;;4.00;99.90;;;;;;5049450;28;20033;-80
2021/01/10 05:15:16;;;;;;;26.25;16.27;;;4.00;99.90;;;;;;5050724;28;20028;-82
2021/01/10 05:18:00;;;;;;;25.70;15.95;;;4.00;99.90;;;;;;5049346;28;20208;-81
2021/01/10 05:20:30;;;;;;;24.30;14.10;;;4.00;99.90;;;;;;5050569;28;20535;-79
2021/01/10 05:22:57;;;;;;;26.90;15.32;;;4.10;99.90;;;;;;5050632;28;20372;-82
2021/01/10 05:25:23;;;;;;;30.77;17.30;;;4.10;99.90;;;;;;5049126;28;20504;-81
2021/01/10 05:27:52;;;;;;;33.38;17.85;;;4.10;99.90;;;;;;5049300;28;20059;-79
2021/01/10 05:30:27;;;;;;;26.40;15.27;;;4.10;99.90;;;;;;5050358;28;20029;-78
2021/01/10 05:33:05;;;;;;;30.20;15.77;;;4.10;99.90;;;;;;5049211;28;20033;-83
2021/01/10 05:35:47;;;;;;;29.98;15.68;;;4.10;99.90;;;;;;5032508;28;20029;-79
2021/01/10 05:38:29;;;;;;;28.38;15.68;;;4.10;99.90;;;;;;5049244;28;20037;-78
2021/01/10 05:40:57;;;;;;;26.67;15.55;;;4.10;99.90;;;;;;5050284;28;20032;-78
2021/01/10 05:43:24;;;;;;;30.70;17.15;;;4.10;99.90;;;;;;5050342;28;20383;-81
2021/01/10 05:45:50;;;;;;;28.00;15.77;;;4.10;99.90;;;;;;5032160;28;20056;-78
2021/01/10 05:48:17;;;;;;;31.23;18.40;;;4.10;99.90;;;;;;5048764;28;20488;-82
2021/01/10 05:50:45;;;;;;;32.47;18.27;;;4.10;99.90;;;;;;5032464;28;20450;-80
2021/01/10 05:53:21;;;;;;;30.40;15.98;;;4.10;99.90;;;;;;5050104;28;20029;-78
2021/01/10 05:56:02;;;;;;;30.23;16.85;;;4.10;99.90;;;;;;5048651;28;20032;-80
2021/01/10 05:58:30;;;;;;;32.47;18.50;;;4.10;99.90;;;;;;5048771;28;20029;-82
2021/01/10 06:01:09;;;;;;;30.10;17.40;;;4.10;99.90;;;;;;5049851;28;20507;-82
2021/01/10 06:03:36;;;;;;;31.38;17.92;;;4.10;99.90;;;;;;5048393;28;20029;-81
2021/01/10 06:06:06;;;;;;;36.08;18.30;;;4.10;99.90;;;;;;5048168;28;20025;-81
2021/01/10 06:08:34;;;;;;;29.30;17.23;;;4.10;99.90;;;;;;5031925;28;20381;-80
2021/01/10 06:11:22;;;;;;;30.13;16.27;;;4.10;99.90;;;;;;5048374;28;20033;-79
2021/01/10 06:13:48;;;;;;;29.27;16.67;;;4.20;99.90;;;;;;5049679;28;20035;-78
2021/01/10 06:16:15;;;;;;;27.50;16.50;;;4.10;99.90;;;;;;5048038;28;20387;-81
2021/01/10 06:18:44;;;;;;;31.75;17.52;;;4.20;99.90;;;;;;5048316;28;20349;-81
2021/01/10 06:21:18;;;;;;;34.55;16.65;;;4.20;99.90;;;;;;5048387;28;20025;-82
2021/01/10 06:23:47;;;;;;;29.17;16.85;;;4.20;99.90;;;;;;5031733;28;20392;-82
2021/01/10 06:26:15;;;;;;;;;;;4.20;99.90;;;;;;5049812;28;20053;-80
2021/01/10 06:28:45;;;;;;;26.67;16.35;;;4.20;99.90;;;;;;5047929;28;20374;-80
2021/01/10 06:31:19;;;;;;;36.33;16.55;;;4.20;99.90;;;;;;5048080;28;20545;-78
2021/01/10 06:33:49;;;;;;;31.75;16.27;;;4.20;99.90;;;;;;5048028;28;20060;-78
2021/01/10 06:36:20;;;;;;;32.13;15.93;;;4.20;99.90;;;;;;5047778;28;20032;-79
2021/01/10 06:39:01;;;;;;;27.80;15.70;;;4.20;99.90;;;;;;5047972;28;20475;-82
2021/01/10 06:41:32;;;;;;;29.17;16.00;;;4.20;99.90;;;;;;5047770;28;20731;-81
2021/01/10 06:44:02;;;;;;;29.40;16.90;;;4.20;99.90;;;;;;5047701;28;20021;-78
2021/01/10 06:46:28;;;;;;;29.50;15.48;;;4.20;99.90;;;;;;5047718;28;20037;-81
2021/01/10 06:48:54;;;;;;;31.05;16.83;;;4.20;99.90;;;;;;5030968;28;20041;-79
2021/01/10 06:51:25;;;;;;;34.13;16.15;;;4.20;99.90;;;;;;5048915;28;20079;-78
2021/01/10 06:53:51;;;;;;;31.70;17.20;;;4.20;99.90;;;;;;5048859;28;20032;-78
2021/01/10 06:56:17;;;;;;;28.88;16.65;;;4.20;99.90;;;;;;5048652;28;20052;-80
2021/01/10 06:59:08;;;;;;;28.05;15.63;;;4.20;99.90;;;;;;5048824;28;20048;-79
2021/01/10 07:01:48;;;;;;;34.08;17.40;;;4.20;99.90;;;;;;5015387;28;20120;-81
2021/01/10 07:04:32;;;;;;;33.60;16.35;;;4.20;99.90;;;;;;5048544;28;20021;-78
2021/01/10 07:06:58;;;;;;;36.58;16.35;;;4.20;99.90;;;;;;5047271;28;20053;-80
2021/01/10 07:09:25;;;;;;;29.67;16.23;;;4.20;99.90;;;;;;5030649;28;20037;-79
2021/01/10 07:11:51;;;;;;;31.85;16.88;;;4.20;99.90;;;;;;5048593;28;20075;-81
2021/01/10 07:14:17;;;;;;;31.95;16.48;;;4.20;99.90;;;;;;5048447;28;20028;-79
2021/01/10 07:16:45;;;;;;;37.55;17.63;;;4.30;99.90;;;;;;5048510;28;20029;-80
2021/01/10 07:19:14;;;;;;;42.63;17.73;;;4.20;99.90;;;;;;5030279;28;20045;-77
2021/01/10 07:21:49;;;;;;;33.72;17.88;;;4.30;99.90;;;;;;5048386;28;20052;-81
2021/01/10 07:24:21;;;;;;;45.70;20.50;;;4.30;99.90;;;;;;5030228;28;20052;-79
2021/01/10 07:26:54;;;;;;;36.50;17.95;;;4.30;99.90;;;;;;5048431;28;20661;-80
2021/01/10 07:29:38;;;;;;;37.40;19.10;;;4.30;99.90;;;;;;5048186;28;20116;-78
2021/01/10 07:32:07;;;;;;;46.28;19.30;;;4.30;99.90;;;;;;5048154;28;20140;-78
2021/01/10 07:34:56;;;;;;;39.03;17.27;;;4.30;99.90;;;;;;5048073;28;20387;-78
2021/01/10 07:37:25;;;;;;;;;;;4.30;99.90;;;;;;5047037;28;20119;-79
2021/01/10 07:39:58;;;;;;;35.83;17.60;;;4.30;99.90;;;;;;5047990;28;20283;-80
2021/01/10 07:42:26;;;;;;;39.45;18.83;;;4.30;99.90;;;;;;5048026;28;20028;-80
2021/01/10 07:45:00;;;;;;;42.08;17.63;;;4.30;99.90;;;;;;5046700;28;20033;-81
2021/01/10 07:47:35;;;;;;;37.13;17.33;;;4.30;99.90;;;;;;5048004;28;20551;-78
2021/01/10 07:50:10;;;;;;;35.45;17.58;;;4.30;99.90;;;;;;5047894;28;20032;-79
2021/01/10 07:52:42;;;;;;;44.72;19.60;;;4.30;99.90;;;;;;5047768;28;20036;-82
2021/01/10 07:55:19;;;;;;;50.47;17.23;;;4.30;99.90;;;;;;5047750;28;20052;-79
2021/01/10 07:58:14;;;;;;;43.25;19.17;;;4.30;99.90;;;;;;5046311;28;20308;-78
2021/01/10 08:00:45;;;;;;;39.42;18.52;;;4.30;99.90;;;;;;5047579;28;20072;-80
2021/01/10 08:03:18;;;;;;;39.67;19.13;;;4.30;99.90;;;;;;5047791;28;20447;-77
2021/01/10 08:05:57;;;;;;;47.25;20.70;;;4.40;99.90;;;;;;5047553;28;20017;-81
2021/01/10 08:08:39;;;;;;;45.78;18.17;;;4.40;99.90;;;;;;5046183;28;20045;-82
2021/01/10 08:11:05;;;;;;;42.55;18.27;;;4.40;99.90;;;;;;5047613;28;20100;-78
2021/01/10 08:13:44;;;;;;;35.25;18.35;;;4.40;99.90;;;;;;5046403;28;20439;-80
2021/01/10 08:16:11;;;;;;;44.30;18.07;;;4.30;99.90;;;;;;5047627;28;20111;-79
2021/01/10 08:18:39;;;;;;;36.88;18.85;;;4.40;99.90;;;;;;5046248;28;20108;-80
2021/01/10 08:21:13;;;;;;;38.25;16.80;;;4.40;99.90;;;;;;5046119;28;20025;-80
2021/01/10 08:23:41;;;;;;;38.63;18.50;;;4.40;99.90;;;;;;5047619;28;20096;-82
2021/01/10 08:26:12;;;;;;;39.38;18.38;;;4.40;99.90;;;;;;5045918;28;20027;-81
2021/01/10 08:28:42;;;;;;;42.78;18.83;;;4.40;99.90;;;;;;5046028;28;20033;-80
2021/01/10 08:31:10;;;;;;;35.83;16.92;;;4.40;99.90;;;;;;5049970;28;20027;-78
2021/01/10 08:33:36;;;;;;;40.38;19.20;;;4.40;99.90;;;;;;5051685;28;20092;-80
2021/01/10 08:36:28;;;;;;;33.65;17.10;;;4.40;99.90;;;;;;5051307;28;20124;-79
2021/01/10 08:38:59;;;;;;;35.35;15.88;;;4.40;99.90;;;;;;5048666;28;20045;-77
2021/01/10 08:41:29;;;;;;;39.33;19.02;;;4.40;99.90;;;;;;5049804;28;20029;-78
2021/01/10 08:43:59;;;;;;;36.13;15.70;;;4.40;99.90;;;;;;5051693;28;20025;-79
2021/01/10 08:46:26;;;;;;;37.83;16.17;;;4.40;99.90;;;;;;5051351;28;20436;-78
2021/01/10 08:48:51;;;;;;;36.33;16.67;;;4.40;99.90;;;;;;5051305;28;20029;-80
2021/01/10 08:51:31;;;;;;;32.83;17.30;;;4.40;99.90;;;;;;5033195;28;20479;-78
2021/01/10 08:53:57;;;;;;;33.75;16.38;;;4.40;99.90;;;;;;5051244;28;20026;-81
2021/01/10 08:56:23;;;;;;;36.58;17.45;;;4.40;99.90;;;;;;5050547;28;20379;-81
2021/01/10 08:58:56;;;;;;;50.28;19.23;;;4.40;99.90;;;;;;5032790;28;20044;-78
2021/01/10 09:01:23;;;;;;;35.75;17.67;;;4.40;99.90;;;;;;5049802;28;20032;-80
2021/01/10 09:04:08;;;;;;;37.72;19.33;;;4.40;99.90;;;;;;5050972;28;20025;-77
2021/01/10 09:06:34;;;;;;;40.55;16.90;;;4.40;99.90;;;;;;5049352;28;20036;-79
2021/01/10 09:09:03;;;;;;;35.65;16.25;;;4.40;99.90;;;;;;5050472;28;20079;-79
2021/01/10 09:11:31;;;;;;;42.67;18.02;;;4.50;99.90;;;;;;5050432;28;20021;-79
2021/01/10 09:14:00;;;;;;;41.45;16.48;;;4.40;99.90;;;;;;5049291;28;20029;-80
2021/01/10 09:16:29;;;;;;;34.05;15.80;;;4.50;99.90;;;;;;5049243;28;20036;-81
2021/01/10 09:18:57;;;;;;;51.92;16.30;;;4.50;99.90;;;;;;5049232;28;20524;-82
2021/01/10 09:21:27;;;;;;;40.63;16.27;;;4.50;99.90;;;;;;5050456;28;20103;-78
2021/01/10 09:23:58;;;;;;;37.67;16.67;;;4.50;99.90;;;;;;5049457;28;20029;-80
2021/01/10 09:26:32;;;;;;;39.67;15.65;;;4.50;99.90;;;;;;5048964;28;20025;-80
2021/01/10 09:28:59;;;;;;;33.28;16.00;;;4.50;99.90;;;;;;5032819;28;20383;-77
2021/01/10 09:31:48;;;;;;;31.63;14.98;;;4.50;99.90;;;;;;5050295;28;20552;-80
2021/01/10 09:34:15;;;;;;;34.03;14.75;;;4.60;99.90;;;;;;5050061;28;20037;-79
2021/01/10 09:36:41;;;;;;;30.67;15.48;;;4.60;99.90;;;;;;5050097;28;20515;-80
2021/01/10 09:39:08;;;;;;;33.70;15.20;;;4.70;99.90;;;;;;5048883;28;20416;-80
2021/01/10 09:41:59;;;;;;;46.05;15.13;;;4.70;99.90;;;;;;5031814;28;20368;-81
2021/01/10 09:44:24;;;;;;;35.65;14.65;;;4.70;99.90;;;;;;5031929;28;20025;-80
2021/01/10 09:46:53;;;;;;;31.08;15.32;;;4.70;99.90;;;;;;5049826;28;20075;-81
2021/01/10 09:49:27;;;;;;;35.00;14.00;;;4.70;99.90;;;;;;5048624;28;20539;-79
2021/01/10 09:51:58;;;;;;;25.70;14.43;;;4.80;99.90;;;;;;5050006;28;20024;-79
2021/01/10 09:54:32;;;;;;;34.15;15.30;;;4.80;99.90;;;;;;5049516;28;20060;-78
2021/01/10 09:56:59;;;;;;;31.83;15.30;;;4.80;99.90;;;;;;5049820;28;20039;-79
2021/01/10 09:59:44;;;;;;;26.35;14.02;;;4.80;99.90;;;;;;5048604;28;20109;-79
2021/01/10 10:02:17;;;;;;;30.17;14.07;;;4.90;99.90;;;;;;5048053;28;20013;-79
2021/01/10 10:04:53;;;;;;;29.38;13.30;;;4.90;99.90;;;;;;5048519;28;20059;-81
2021/01/10 10:07:36;;;;;;;36.00;14.30;;;4.90;99.90;;;;;;5048302;28;20121;-79
2021/01/10 10:10:05;;;;;;;37.88;14.15;;;4.80;99.90;;;;;;5049521;28;20029;-77
2021/01/10 10:12:31;;;;;;;33.60;13.73;;;4.90;99.90;;;;;;5048197;28;20057;-79
2021/01/10 10:14:59;;;;;;;27.92;13.35;;;4.90;99.90;;;;;;5047893;28;20072;-79
2021/01/10 10:17:34;;;;;;;39.03;14.68;;;4.90;99.90;;;;;;5049176;28;20033;-79
2021/01/10 10:20:00;;;;;;;26.02;13.80;;;4.90;99.90;;;;;;5049022;28;20426;-79
2021/01/10 10:22:35;;;;;;;26.58;13.85;;;4.90;99.90;;;;;;5047852;28;20025;-79
2021/01/10 10:25:03;;;;;;;35.60;14.20;;;4.90;99.90;;;;;;5047763;28;20042;-78
2021/01/10 10:27:31;;;;;;;33.95;14.32;;;4.90;99.90;;;;;;5048234;28;20119;-80
2021/01/10 10:29:57;;;;;;;35.53;13.38;;;4.90;99.90;;;;;;5047569;28;20021;-79
2021/01/10 10:32:23;;;;;;;37.03;15.75;;;4.90;99.90;;;;;;5047793;28;20035;-80
2021/01/10 10:34:52;;;;;;;29.17;13.68;;;5.00;99.90;;;;;;5030986;28;20112;-80
2021/01/10 10:37:19;;;;;;;28.83;15.15;;;5.10;99.90;;;;;;5047432;28;20032;-77
2021/01/10 10:39:45;;;;;;;29.30;14.38;;;5.10;99.90;;;;;;5048866;28;20025;-81
2021/01/10 10:42:14;;;;;;;31.42;15.40;;;5.20;99.90;;;;;;5047374;28;20424;-79
2021/01/10 10:44:40;;;;;;;36.67;15.85;;;5.20;99.90;;;;;;5047520;28;20057;-81
2021/01/10 10:47:09;;;;;;;28.30;14.55;;;5.20;99.90;;;;;;5048647;28;20029;-77
2021/01/10 10:49:34;;;;;;;31.02;14.60;;;5.20;99.90;;;;;;5047349;28;20104;-79
2021/01/10 10:52:00;;;;;;;30.95;14.60;;;5.30;99.90;;;;;;5047410;28;20448;-79
2021/01/10 10:54:26;;;;;;;33.65;15.25;;;5.30;99.90;;;;;;5029991;28;20036;-79
2021/01/10 10:56:52;;;;;;;30.05;16.73;;;5.40;99.90;;;;;;5047475;28;20040;-78
2021/01/10 10:59:18;;;;;;;30.80;15.25;;;5.40;99.90;;;;;;5048422;28;20029;-80
2021/01/10 11:01:48;;;;;;;28.40;15.35;;;5.50;99.90;;;;;;5048045;28;20076;-80
2021/01/10 11:04:14;;;;;;;30.90;15.50;;;5.50;99.90;;;;;;5047794;28;20040;-77
2021/01/10 11:06:41;;;;;;;27.60;15.63;;;5.60;99.90;;;;;;5046757;28;20120;-79
2021/01/10 11:09:09;;;;;;;24.42;13.45;;;5.60;99.90;;;;;;5046774;28;20037;-80
2021/01/10 11:11:36;;;;;;;23.00;12.80;;;5.70;99.90;;;;;;5048675;28;20029;-78
2021/01/10 11:14:03;;;;;;;33.78;13.80;;;5.70;99.90;;;;;;5030075;28;20134;-81
2021/01/10 11:16:30;;;;;;;25.00;13.65;;;5.80;99.90;;;;;;5047954;28;20025;-77
2021/01/10 11:18:56;;;;;;;18.75;11.50;;;5.80;99.90;;;;;;5046732;28;20051;-80
2021/01/10 11:21:27;;;;;;;25.10;13.32;;;5.90;99.90;;;;;;5029799;28;20029;-78
2021/01/10 11:23:53;;;;;;;30.23;12.00;;;5.90;99.90;;;;;;5047763;28;20431;-82
2021/01/10 11:26:19;;;;;;;24.20;11.70;;;5.90;99.90;;;;;;5047474;28;20029;-80
2021/01/10 11:28:44;;;;;;;18.92;10.80;;;5.90;99.90;;;;;;5046401;28;20079;-79
2021/01/10 11:31:10;;;;;;;22.00;11.77;;;5.90;99.90;;;;;;5046284;28;20028;-78
2021/01/10 11:33:36;;;;;;;20.35;10.18;;;5.90;99.90;;;;;;5048031;28;20025;-79
2021/01/10 11:36:04;;;;;;;15.50;9.95;;;5.90;99.90;;;;;;5046021;28;20534;-80
2021/01/10 11:38:29;;;;;;;16.98;9.52;;;5.80;99.90;;;;;;5046055;28;20115;-79
2021/01/10 11:40:55;;;;;;;19.77;11.20;;;5.80;99.90;;;;;;5029325;28;20132;-78
2021/01/10 11:43:21;;;;;;;21.45;11.82;;;5.80;99.90;;;;;;5047570;28;20021;-78
2021/01/10 11:45:46;;;;;;;21.40;11.15;;;5.80;99.90;;;;;;5047542;28;20025;-80
2021/01/10 11:48:12;;;;;;;18.65;12.60;;;5.80;99.90;;;;;;5046136;28;20447;-78
2021/01/10 11:50:41;;;;;;;20.20;10.88;;;5.80;99.90;;;;;;5047396;28;20387;-78
2021/01/10 11:53:07;;;;;;;21.83;9.82;;;5.70;99.90;;;;;;5047010;28;20033;-79
2021/01/10 11:55:36;;;;;;;23.65;11.18;;;5.70;99.90;;;;;;5028980;28;20029;-81
2021/01/10 11:58:01;;;;;;;22.83;10.68;;;5.70;99.90;;;;;;5045642;28;20055;-83
2021/01/10 12:00:27;;;;;;;22.23;11.82;;;5.70;99.90;;;;;;5029079;28;20033;-81
2021/01/10 12:02:53;;;;;;;20.15;11.90;;;5.70;99.90;;;;;;5045605;28;20032;-81
2021/01/10 12:05:18;;;;;;;19.38;11.27;;;5.70;99.90;;;;;;5029136;28;20033;-78
2021/01/10 12:07:44;;;;;;;19.85;11.82;;;5.70;99.90;;;;;;5028980;28;20049;-81
2021/01/10 12:10:10;;;;;;;22.45;12.07;;;5.70;99.90;;;;;;5029285;28;20032;-79
2021/01/10 12:12:35;;;;;;;21.55;13.18;;;5.70;99.90;;;;;;5045727;28;20147;-81
2021/01/10 12:15:01;;;;;;;19.98;12.05;;;5.70;99.90;;;;;;5045906;28;20038;-78
2021/01/10 12:17:27;;;;;;;21.58;13.45;;;5.70;99.90;;;;;;5047205;28;20029;-82
2021/01/10 12:19:53;;;;;;;22.58;12.93;;;5.60;99.90;;;;;;5045760;28;20108;-78
2021/01/10 12:22:18;;;;;;;23.33;11.38;;;5.70;99.90;;;;;;5045633;28;20025;-79
2021/01/10 12:24:44;;;;;;;23.88;10.05;;;5.70;99.90;;;;;;5029160;28;20079;-78
2021/01/10 12:27:12;;;;;;;29.00;10.82;;;5.70;99.90;;;;;;5029161;28;20033;-79
2021/01/10 12:29:37;;;;;;;19.17;10.52;;;5.70;99.90;;;;;;5045497;28;20032;-80
2021/01/10 12:32:03;;;;;;;17.95;11.20;;;5.80;99.90;;;;;;5046368;28;20224;-79
2021/01/10 12:34:29;;;;;;;20.92;11.68;;;5.80;99.90;;;;;;5028435;28;20128;-77
2021/01/10 12:36:54;;;;;;;13.15;8.50;;;5.90;99.90;;;;;;5045189;28;20040;-82
2021/01/10 12:39:20;;;;;;;22.23;9.63;;;6.00;99.90;;;;;;5045181;28;20090;-80
2021/01/10 12:41:46;;;;;;;16.50;10.45;;;6.00;99.90;;;;;;5046590;28;20028;-81
2021/01/10 12:44:11;;;;;;;14.85;9.65;;;6.00;99.90;;;;;;5044912;28;20037;-81
2021/01/10 12:46:37;;;;;;;16.55;10.05;;;6.10;99.90;;;;;;5045153;28;20098;-80
2021/01/10 12:49:03;;;;;;;14.07;9.27;;;6.20;99.90;;;;;;5044620;28;20487;-77